createdAt,value
2019-04-28T00:02:01.359Z,8.65
2019-04-28T00:04:32.935Z,7.37
2019-04-28T00:07:03.332Z,8.88
2019-04-28T00:09:33.959Z,13.38
2019-04-28T00:12:04.838Z,12.07
2019-04-28T00:14:35.431Z,9.53
2019-04-28T00:17:07.266Z,8.93
2019-04-28T00:19:40.730Z,7.42
2019-04-28T00:22:17.196Z,8.38
2019-04-28T00:25:12.700Z,7.25
2019-04-28T00:27:43.237Z,8.45
2019-04-28T00:30:13.848Z,8.85
2019-04-28T00:32:44.179Z,12.73
2019-04-28T00:35:14.619Z,9.70
2019-04-28T00:37:45.358Z,9.50
2019-04-28T00:40:15.888Z,9.43
2019-04-28T00:42:46.316Z,9.33
2019-04-28T00:45:17.220Z,7.87
2019-04-28T00:47:47.462Z,7.45
2019-04-28T00:50:21.709Z,11.73
2019-04-28T00:52:52.245Z,7.83
2019-04-28T00:55:22.521Z,8.65
2019-04-28T00:57:52.753Z,12.80
2019-04-28T01:00:25.031Z,14.70
2019-04-28T01:02:55.319Z,10.95
2019-04-28T01:05:27.194Z,8.05
2019-04-28T01:07:57.503Z,7.05
2019-04-28T01:10:28.767Z,7.80
2019-04-28T01:13:02.100Z,6.70
2019-04-28T01:15:50.074Z,7.50
2019-04-28T01:18:30.291Z,15.18
2019-04-28T01:21:00.831Z,11.15
2019-04-28T01:23:31.062Z,6.80
2019-04-28T01:26:01.437Z,10.20
2019-04-28T01:28:33.373Z,8.35
2019-04-28T01:31:21.550Z,7.97
2019-04-28T01:34:10.838Z,6.97
2019-04-28T01:36:41.331Z,8.50
2019-04-28T01:39:11.551Z,7.03
2019-04-28T01:41:42.024Z,8.63
2019-04-28T01:44:12.331Z,6.25
2019-04-28T01:46:42.553Z,8.85
2019-04-28T01:49:14.152Z,8.83
2019-04-28T01:51:45.892Z,7.75
2019-04-28T01:54:16.344Z,7.97
2019-04-28T01:56:47.928Z,8.30
2019-04-28T01:59:20.030Z,5.42
2019-04-28T02:01:51.931Z,6.25
2019-04-28T02:04:22.309Z,7.72
2019-04-28T02:06:52.953Z,5.90
2019-04-28T02:09:23.222Z,6.50
2019-04-28T02:11:53.502Z,8.00
2019-04-28T02:14:23.798Z,8.63
2019-04-28T02:16:54.235Z,5.78
2019-04-28T02:19:24.543Z,5.65
2019-04-28T02:22:06.377Z,6.00
2019-04-28T02:24:37.358Z,6.62
2019-04-28T02:27:07.697Z,4.65
2019-04-28T02:29:41.448Z,6.53
2019-04-28T02:32:13.011Z,7.08
2019-04-28T02:34:43.668Z,6.08
2019-04-28T02:37:13.999Z,6.33
2019-04-28T02:39:44.262Z,7.08
2019-04-28T02:42:16.462Z,7.80
2019-04-28T02:44:46.873Z,8.73
2019-04-28T02:47:17.341Z,4.17
2019-04-28T02:50:00.834Z,6.30
2019-04-28T02:52:51.901Z,7.22
2019-04-28T02:55:21.580Z,9.05
2019-04-28T02:57:51.956Z,8.35
2019-04-28T03:00:23.523Z,3.12
2019-04-28T03:02:53.862Z,6.97
2019-04-28T03:05:24.154Z,10.08
2019-04-28T03:07:54.454Z,7.37
2019-04-28T03:10:24.781Z,8.15
2019-04-28T03:12:54.954Z,7.70
2019-04-28T03:15:25.375Z,7.45
2019-04-28T03:17:55.680Z,7.92
2019-04-28T03:20:25.992Z,9.03
2019-04-28T03:22:56.324Z,5.58
2019-04-28T03:25:34.385Z,6.08
2019-04-28T03:28:14.126Z,6.78
2019-04-28T03:31:33.606Z,5.95
2019-04-28T03:33:41.955Z,4.58
2019-04-28T03:36:09.281Z,5.83
2019-04-28T03:38:40.625Z,5.70
2019-04-28T03:41:11.384Z,6.45
2019-04-28T03:43:42.001Z,6.42
2019-04-28T03:46:20.266Z,10.53
2019-04-28T03:48:50.998Z,6.47
2019-04-28T03:51:21.513Z,6.10
2019-04-28T03:53:51.731Z,6.60
2019-04-28T03:56:22.144Z,5.80
2019-04-28T03:58:52.422Z,8.25
2019-04-28T04:01:22.682Z,5.75
2019-04-28T04:03:53.195Z,6.10
2019-04-28T04:06:23.713Z,4.92
2019-04-28T04:08:54.083Z,7.92
2019-04-28T04:11:33.942Z,7.37
2019-04-28T04:14:14.156Z,8.85
2019-04-28T04:16:50.356Z,7.95
2019-04-28T04:19:20.727Z,10.48
2019-04-28T04:21:52.710Z,6.80
2019-04-28T04:24:24.516Z,7.22
2019-04-28T04:26:55.093Z,8.68
2019-04-28T04:29:25.330Z,7.03
2019-04-28T04:32:10.043Z,7.45
2019-04-28T04:34:30.256Z,8.63
2019-04-28T04:37:03.608Z,7.50
2019-04-28T04:39:35.109Z,8.53
2019-04-28T04:42:05.370Z,7.75
2019-04-28T04:44:38.062Z,7.20
2019-04-28T04:47:07.791Z,9.90
2019-04-28T04:49:40.327Z,7.08
2019-04-28T04:52:12.654Z,10.88
2019-04-28T04:54:42.843Z,7.12
2019-04-28T04:57:13.143Z,7.25
2019-04-28T04:59:43.428Z,9.35
2019-04-28T05:02:51.730Z,8.63
2019-04-28T05:05:27.910Z,9.05
2019-04-28T05:08:00.344Z,10.28
2019-04-28T05:10:30.773Z,11.12
2019-04-28T05:13:01.316Z,9.75
2019-04-28T05:15:31.522Z,5.67
2019-04-28T05:18:01.996Z,10.35
2019-04-28T05:20:32.246Z,8.58
2019-04-28T05:23:24.258Z,8.65
2019-04-28T05:25:54.823Z,8.20
2019-04-28T05:28:25.052Z,8.20
2019-04-28T05:30:55.323Z,11.40
2019-04-28T05:33:33.300Z,9.30
2019-04-28T05:36:02.965Z,8.73
2019-04-28T05:38:33.391Z,10.10
2019-04-28T05:41:03.676Z,9.53
2019-04-28T05:43:34.127Z,10.45
2019-04-28T05:46:04.523Z,9.18
2019-04-28T05:48:43.810Z,10.20
2019-04-28T05:51:16.741Z,11.50
2019-04-28T05:53:55.915Z,9.13
2019-04-28T05:56:49.553Z,12.58
2019-04-28T05:59:41.588Z,11.25
2019-04-28T06:02:18.171Z,9.93
2019-04-28T06:04:49.456Z,10.45
2019-04-28T06:07:34.626Z,9.73
2019-04-28T06:10:05.730Z,8.75
2019-04-28T06:12:36.057Z,10.23
2019-04-28T06:15:06.812Z,11.38
2019-04-28T06:17:37.238Z,11.25
2019-04-28T06:20:07.579Z,8.88
2019-04-28T06:22:37.796Z,9.50
2019-04-28T06:25:09.330Z,15.30
2019-04-28T06:27:39.680Z,10.40
2019-04-28T06:30:10.149Z,10.63
2019-04-28T06:32:40.447Z,15.25
2019-04-28T06:35:10.962Z,9.25
2019-04-28T06:37:41.322Z,13.03
2019-04-28T06:40:15.161Z,9.08
2019-04-28T06:42:45.545Z,9.90
2019-04-28T06:45:17.181Z,9.00
2019-04-28T06:47:47.555Z,10.68
2019-04-28T06:50:17.826Z,9.90
2019-04-28T06:52:48.033Z,10.63
2019-04-28T06:55:18.462Z,10.75
2019-04-28T06:57:48.710Z,11.57
2019-04-28T07:00:20.275Z,10.30
2019-04-28T07:02:50.728Z,9.33
2019-04-28T07:05:21.035Z,10.78
2019-04-28T07:07:51.469Z,11.10
2019-04-28T07:10:21.691Z,8.25
2019-04-28T07:12:52.174Z,13.08
2019-04-28T07:15:22.526Z,10.93
2019-04-28T07:17:52.847Z,11.12
2019-04-28T07:20:51.834Z,9.70
2019-04-28T07:23:22.206Z,11.88
2019-04-28T07:25:52.636Z,11.93
2019-04-28T07:28:23.238Z,11.48
2019-04-28T07:30:53.584Z,7.33
2019-04-28T07:33:35.570Z,13.20
2019-04-28T07:35:57.149Z,10.78
2019-04-28T07:38:27.543Z,7.60
2019-04-28T07:40:58.737Z,11.03
2019-04-28T07:43:28.932Z,11.43
2019-04-28T07:46:01.850Z,10.15
2019-04-28T07:48:32.161Z,12.63
2019-04-28T07:51:02.497Z,13.40
2019-04-28T07:53:54.869Z,10.03
2019-04-28T07:56:25.353Z,9.23
2019-04-28T07:58:55.678Z,16.67
2019-04-28T08:01:26.243Z,12.58
2019-04-28T08:03:57.634Z,12.50
2019-04-28T08:06:30.528Z,13.00
2019-04-28T08:09:02.462Z,12.05
2019-04-28T08:11:34.756Z,15.55
2019-04-28T08:14:06.363Z,11.65
2019-04-28T08:16:36.726Z,14.25
2019-04-28T08:19:07.050Z,11.18
2019-04-28T08:21:38.842Z,9.73
2019-04-28T08:24:12.169Z,10.65
2019-04-28T08:26:42.567Z,12.45
2019-04-28T08:29:12.880Z,14.53
2019-04-28T08:31:50.450Z,12.82
2019-04-28T08:34:21.226Z,9.98
2019-04-28T08:36:51.755Z,11.33
2019-04-28T08:39:26.711Z,14.33
2019-04-28T08:41:55.991Z,10.68
2019-04-28T08:44:26.403Z,11.60
2019-04-28T08:46:57.968Z,9.90
2019-04-28T08:49:28.500Z,11.45
2019-04-28T08:51:58.993Z,12.55
2019-04-28T08:54:30.490Z,15.15
2019-04-28T08:57:00.945Z,13.40
2019-04-28T08:59:31.311Z,14.03
2019-04-28T09:02:01.709Z,11.90
2019-04-28T09:04:32.149Z,13.40
2019-04-28T09:07:05.038Z,12.28
2019-04-28T09:09:35.396Z,12.43
2019-04-28T09:12:07.454Z,17.05
2019-04-28T09:14:37.887Z,16.85
2019-04-28T09:17:09.847Z,15.40
2019-04-28T09:19:42.437Z,10.40
2019-04-28T09:22:12.536Z,12.07
2019-04-28T09:24:43.244Z,13.55
2019-04-28T09:27:13.551Z,13.70
2019-04-28T09:29:44.204Z,11.83
2019-04-28T09:32:14.688Z,11.55
2019-04-28T09:34:45.092Z,21.75
2019-04-28T09:37:15.406Z,10.18
2019-04-28T09:39:49.946Z,12.05
2019-04-28T09:42:38.068Z,10.72
2019-04-28T09:45:13.789Z,10.40
2019-04-28T09:47:45.350Z,11.50
2019-04-28T09:50:15.746Z,10.55
2019-04-28T09:52:48.620Z,7.90
2019-04-28T09:55:18.423Z,8.58
2019-04-28T09:57:48.868Z,14.80
2019-04-28T10:00:19.754Z,9.75
2019-04-28T10:02:50.139Z,6.97
2019-04-28T10:05:20.638Z,10.55
2019-04-28T10:07:51.058Z,8.75
2019-04-28T10:10:21.402Z,13.08
2019-04-28T10:12:52.052Z,12.40
2019-04-28T10:15:22.446Z,11.38
2019-04-28T10:17:53.638Z,10.32
2019-04-28T10:20:25.381Z,8.40
2019-04-28T10:22:55.874Z,11.18
2019-04-28T10:25:26.234Z,7.40
2019-04-28T10:27:56.971Z,9.58
2019-04-28T10:30:27.375Z,8.83
2019-04-28T10:32:57.810Z,9.60
2019-04-28T10:35:28.296Z,7.72
2019-04-28T10:37:58.596Z,10.30
2019-04-28T10:40:52.027Z,7.85
2019-04-28T10:43:22.689Z,17.95
2019-04-28T10:45:53.726Z,11.65
2019-04-28T10:48:24.197Z,12.00
2019-04-28T10:50:54.519Z,10.53
2019-04-28T10:53:24.980Z,8.48
2019-04-28T10:55:55.481Z,10.55
2019-04-28T10:58:25.949Z,10.72
2019-04-28T11:00:56.406Z,10.48
2019-04-28T11:03:26.942Z,10.35
2019-04-28T11:05:57.464Z,10.80
2019-04-28T11:08:47.356Z,9.40
2019-04-28T11:11:21.406Z,8.55
2019-04-28T11:13:51.995Z,7.10
2019-04-28T11:16:28.480Z,9.33
2019-04-28T11:18:58.988Z,9.73
2019-04-28T11:21:29.315Z,10.13
2019-04-28T11:23:59.941Z,11.70
2019-04-28T11:26:30.346Z,5.30
2019-04-28T11:29:01.230Z,7.72
2019-04-28T11:31:31.635Z,6.78
2019-04-28T11:34:20.097Z,7.70
2019-04-28T11:36:50.469Z,6.72
2019-04-28T11:39:26.495Z,7.42
2019-04-28T11:41:56.925Z,8.58
2019-04-28T11:44:27.391Z,8.00
2019-04-28T11:46:57.699Z,8.35
2019-04-28T11:49:28.063Z,8.15
2019-04-28T11:51:58.470Z,6.22
2019-04-28T11:54:28.811Z,4.97
2019-04-28T11:56:59.129Z,8.03
2019-04-28T11:59:29.537Z,9.33
2019-04-28T12:02:02.466Z,7.53
2019-04-28T12:04:32.777Z,7.08
2019-04-28T12:07:03.145Z,5.95
2019-04-28T12:09:41.219Z,5.85
2019-04-28T12:12:25.783Z,10.55
2019-04-28T12:15:19.636Z,7.47
2019-04-28T12:18:08.597Z,7.20
2019-04-28T12:20:39.010Z,6.08
2019-04-28T12:23:09.862Z,6.65
2019-04-28T12:25:40.222Z,7.60
2019-04-28T12:28:10.508Z,7.28
2019-04-28T12:30:40.983Z,7.60
2019-04-28T12:33:11.554Z,7.08
2019-04-28T12:35:48.112Z,5.47
2019-04-28T12:38:14.303Z,8.03
2019-04-28T12:40:45.863Z,8.75
2019-04-28T12:43:16.677Z,5.83
2019-04-28T12:45:47.987Z,6.62
2019-04-28T12:48:18.603Z,7.87
2019-04-28T12:50:50.536Z,7.28
2019-04-28T12:53:21.453Z,7.10
2019-04-28T12:55:51.933Z,8.10
2019-04-28T12:58:22.412Z,7.10
2019-04-28T13:01:14.662Z,7.15
2019-04-28T13:03:50.056Z,5.05
2019-04-28T13:06:21.642Z,7.55
2019-04-28T13:08:51.981Z,5.25
2019-04-28T13:11:22.950Z,6.15
2019-04-28T13:13:53.560Z,4.72
2019-04-28T13:16:25.036Z,6.92
2019-04-28T13:18:55.599Z,6.20
2019-04-28T13:21:25.928Z,3.65
2019-04-28T13:23:57.815Z,4.55
2019-04-28T13:26:28.168Z,7.87
2019-04-28T13:28:58.989Z,6.80
2019-04-28T13:31:29.651Z,3.98
2019-04-28T13:34:01.471Z,6.40
2019-04-28T13:36:31.865Z,6.22
2019-04-28T13:39:04.078Z,5.90
2019-04-28T13:41:37.337Z,6.42
2019-04-28T13:44:09.567Z,5.42
2019-04-28T13:46:39.906Z,3.62
2019-04-28T13:49:11.969Z,3.42
2019-04-28T13:51:43.626Z,3.80
2019-04-28T13:54:15.803Z,4.08
2019-04-28T13:56:46.236Z,3.92
2019-04-28T13:59:19.897Z,5.20
2019-04-28T14:02:00.306Z,4.90
2019-04-28T14:04:42.813Z,4.58
2019-04-28T14:07:13.241Z,4.35
2019-04-28T14:09:43.685Z,3.08
2019-04-28T14:12:15.155Z,4.58
2019-04-28T14:14:45.494Z,2.35
2019-04-28T14:17:18.520Z,3.02
2019-04-28T14:19:49.644Z,6.75
2019-04-28T14:22:20.893Z,4.10
2019-04-28T14:24:52.469Z,3.72
2019-04-28T14:27:23.130Z,4.33
2019-04-28T14:29:53.620Z,4.62
2019-04-28T14:32:25.575Z,4.12
2019-04-28T14:34:55.918Z,3.58
2019-04-28T14:37:28.111Z,4.65
2019-04-28T14:39:58.636Z,5.05
2019-04-28T14:42:29.403Z,4.50
2019-04-28T14:44:59.863Z,2.27
2019-04-28T14:47:32.698Z,4.85
2019-04-28T14:50:03.094Z,4.67
2019-04-28T14:52:33.466Z,3.50
2019-04-28T14:55:04.708Z,5.83
2019-04-28T14:57:36.074Z,4.25
2019-04-28T15:00:06.443Z,3.92
2019-04-28T15:02:59.579Z,5.25
2019-04-28T15:05:49.947Z,3.25
2019-04-28T15:08:39.991Z,4.58
2019-04-28T15:11:44.955Z,3.90
2019-04-28T15:14:16.146Z,3.62
2019-04-28T15:16:46.908Z,3.00
2019-04-28T15:19:17.308Z,3.58
2019-04-28T15:21:48.266Z,4.60
2019-04-28T15:24:18.774Z,2.90
2019-04-28T15:26:49.241Z,3.08
2019-04-28T15:29:19.942Z,4.28
2019-04-28T15:31:52.835Z,3.45
2019-04-28T15:34:23.717Z,6.15
2019-04-28T15:36:54.397Z,3.45
2019-04-28T15:39:24.938Z,4.22
2019-04-28T15:41:55.425Z,4.72
2019-04-28T15:44:26.082Z,3.83
2019-04-28T15:46:57.033Z,4.37
2019-04-28T15:49:29.896Z,3.55
2019-04-28T15:52:00.312Z,3.85
2019-04-28T15:54:30.776Z,3.20
2019-04-28T15:57:02.666Z,6.17
2019-04-28T15:59:33.054Z,3.77
2019-04-28T16:02:03.539Z,4.58
2019-04-28T16:04:33.987Z,4.47
2019-04-28T16:07:04.637Z,3.05
2019-04-28T16:09:34.882Z,3.30
2019-04-28T16:12:05.311Z,3.45
2019-04-28T16:14:35.754Z,9.75
2019-04-28T16:17:09.058Z,4.05
2019-04-28T16:19:39.539Z,4.35
2019-04-28T16:22:09.989Z,4.50
2019-04-28T16:24:40.765Z,3.35
2019-04-28T16:27:11.416Z,2.30
2019-04-28T16:29:43.313Z,5.65
2019-04-28T16:32:16.369Z,5.12
2019-04-28T16:34:46.991Z,4.25
2019-04-28T16:37:17.439Z,3.08
2019-04-28T16:39:50.347Z,5.37
2019-04-28T16:42:23.383Z,2.92
2019-04-28T16:45:01.610Z,2.60
2019-04-28T16:47:36.836Z,6.55
2019-04-28T16:50:07.399Z,4.00
2019-04-28T16:52:38.229Z,4.55
2019-04-28T16:55:25.202Z,3.90
2019-04-28T16:58:20.658Z,3.87
2019-04-28T17:01:12.462Z,4.17
2019-04-28T17:03:43.078Z,3.00
2019-04-28T17:06:13.507Z,3.02
2019-04-28T17:08:44.707Z,2.72
2019-04-28T17:11:15.229Z,3.00
2019-04-28T17:13:45.663Z,3.42
2019-04-28T17:16:16.133Z,4.25
2019-04-28T17:18:47.927Z,4.87
2019-04-28T17:21:20.876Z,3.92
2019-04-28T17:23:51.462Z,5.50
2019-04-28T17:26:22.896Z,3.72
2019-04-28T17:28:53.444Z,2.87
2019-04-28T17:31:23.825Z,3.22
2019-04-28T17:33:54.340Z,2.02
2019-04-28T17:36:24.903Z,6.15
2019-04-28T17:38:55.831Z,3.27
2019-04-28T17:41:27.153Z,3.10
2019-04-28T17:43:57.606Z,3.42
2019-04-28T17:46:27.892Z,3.90
2019-04-28T17:48:59.455Z,4.22
2019-04-28T17:51:29.992Z,3.08
2019-04-28T17:54:00.259Z,3.58
2019-04-28T17:56:30.839Z,4.65
2019-04-28T17:59:01.120Z,4.70
2019-04-28T18:02:09.303Z,3.33
2019-04-28T18:05:00.947Z,4.90
2019-04-28T18:07:34.023Z,3.27
2019-04-28T18:10:05.764Z,3.62
2019-04-28T18:12:36.606Z,3.55
2019-04-28T18:15:28.589Z,3.70
2019-04-28T18:18:17.972Z,3.02
2019-04-28T18:20:48.331Z,4.03
2019-04-28T18:23:19.005Z,6.95
2019-04-28T18:25:49.277Z,3.98
2019-04-28T18:28:19.564Z,3.83
2019-04-28T18:31:14.857Z,3.02
2019-04-28T18:34:02.747Z,3.58
2019-04-28T18:36:45.977Z,4.00
2019-04-28T18:39:34.343Z,3.83
2019-04-28T18:42:21.160Z,3.50
2019-04-28T18:44:51.502Z,5.58
2019-04-28T18:47:21.990Z,2.33
2019-04-28T18:49:52.824Z,3.15
2019-04-28T18:52:23.373Z,3.85
2019-04-28T18:54:53.791Z,4.53
2019-04-28T18:57:25.867Z,3.55
2019-04-28T18:59:56.569Z,2.27
2019-04-28T19:02:41.724Z,2.65
2019-04-28T19:05:12.245Z,1.95
2019-04-28T19:08:01.701Z,4.05
2019-04-28T19:10:48.391Z,3.17
2019-04-28T19:13:22.119Z,3.52
2019-04-28T19:16:24.183Z,1.82
2019-04-28T19:18:57.318Z,3.50
2019-04-28T19:21:27.561Z,2.98
2019-04-28T19:23:57.987Z,2.80
2019-04-28T19:26:29.826Z,3.77
2019-04-28T19:29:00.093Z,2.87
2019-04-28T19:31:30.659Z,3.90
2019-04-28T19:34:00.989Z,2.67
2019-04-28T19:36:31.393Z,3.37
2019-04-28T19:39:03.385Z,3.52
2019-04-28T19:41:35.503Z,2.22
2019-04-28T19:44:06.138Z,2.95
2019-04-28T19:46:36.752Z,3.02
2019-04-28T19:49:07.487Z,3.50
2019-04-28T19:51:38.145Z,3.95
2019-04-28T19:54:09.380Z,2.72
2019-04-28T19:56:55.550Z,2.42
2019-04-28T19:59:29.514Z,3.15
2019-04-28T20:02:02.250Z,3.65
2019-04-28T20:04:31.855Z,3.05
2019-04-28T20:07:02.293Z,3.62
2019-04-28T20:09:34.224Z,3.12
2019-04-28T20:12:04.586Z,4.35
2019-04-28T20:14:35.251Z,3.10
2019-04-28T20:17:05.705Z,4.42
2019-04-28T20:19:36.140Z,6.37
2019-04-28T20:22:06.538Z,6.28
2019-04-28T20:24:46.894Z,6.45
2019-04-28T20:27:09.017Z,4.47
2019-04-28T20:29:39.288Z,4.37
2019-04-28T20:32:09.740Z,6.72
2019-04-28T20:34:40.077Z,3.80
2019-04-28T20:37:18.285Z,8.13
2019-04-28T20:39:51.979Z,3.85
2019-04-28T20:42:40.052Z,3.95
2019-04-28T20:45:11.694Z,5.05
2019-04-28T20:47:42.304Z,5.03
2019-04-28T20:50:12.693Z,6.53
2019-04-28T20:52:43.204Z,5.67
2019-04-28T20:55:14.821Z,4.35
2019-04-28T20:57:45.193Z,5.95
2019-04-28T21:00:17.039Z,5.25
2019-04-28T21:02:49.333Z,6.97
2019-04-28T21:05:19.872Z,5.33
2019-04-28T21:07:50.196Z,5.87
2019-04-28T21:10:21.734Z,6.80
2019-04-28T21:12:52.179Z,6.87
2019-04-28T21:15:22.868Z,8.23
2019-04-28T21:17:53.341Z,9.03
2019-04-28T21:20:23.637Z,6.95
2019-04-28T21:22:56.102Z,7.72
2019-04-28T21:25:26.473Z,7.42
2019-04-28T21:27:56.722Z,10.05
2019-04-28T21:30:27.092Z,6.65
2019-04-28T21:32:57.731Z,6.80
2019-04-28T21:35:28.040Z,5.83
2019-04-28T21:37:59.682Z,9.75
2019-04-28T21:40:31.117Z,7.60
2019-04-28T21:43:22.397Z,8.53
2019-04-28T21:46:10.357Z,7.25
2019-04-28T21:48:46.172Z,7.42
2019-04-28T21:51:19.020Z,8.08
2019-04-28T21:53:50.679Z,5.30
2019-04-28T21:56:21.114Z,5.83
2019-04-28T21:58:51.608Z,6.20
2019-04-28T22:01:23.574Z,7.92
2019-04-28T22:03:54.089Z,6.17
2019-04-28T22:06:25.048Z,5.83
2019-04-28T22:08:55.390Z,5.37
2019-04-28T22:11:25.799Z,8.18
2019-04-28T22:13:56.106Z,4.35
2019-04-28T22:16:26.599Z,6.90
2019-04-28T22:18:56.867Z,5.33
2019-04-28T22:21:27.292Z,7.62
2019-04-28T22:24:18.727Z,5.75
2019-04-28T22:26:50.324Z,6.15
2019-04-28T22:29:20.630Z,5.08
2019-04-28T22:31:52.350Z,8.10
2019-04-28T22:34:22.606Z,7.97
2019-04-28T22:36:53.104Z,8.80
2019-04-28T22:39:23.466Z,5.45
2019-04-28T22:41:53.771Z,5.58
2019-04-28T22:44:24.342Z,8.23
2019-04-28T22:46:54.769Z,9.78
2019-04-28T22:49:25.186Z,8.88
2019-04-28T22:51:58.245Z,9.38
2019-04-28T22:55:00.437Z,8.80
2019-04-28T22:57:41.418Z,8.50
2019-04-28T23:00:44.353Z,7.87
2019-04-28T23:03:22.891Z,6.60
2019-04-28T23:05:53.128Z,5.03
2019-04-28T23:08:23.540Z,6.47
2019-04-28T23:10:53.755Z,8.68
2019-04-28T23:13:24.250Z,4.75
2019-04-28T23:15:54.533Z,6.92
2019-04-28T23:18:26.279Z,4.67
2019-04-28T23:20:59.748Z,4.22
2019-04-28T23:23:30.120Z,5.42
2019-04-28T23:26:03.010Z,4.28
2019-04-28T23:28:32.698Z,5.22
2019-04-28T23:31:02.988Z,7.60
2019-04-28T23:33:33.285Z,5.50
2019-04-28T23:36:03.586Z,7.47
2019-04-28T23:38:34.034Z,6.55
2019-04-28T23:41:18.163Z,4.45
2019-04-28T23:43:48.718Z,6.35
2019-04-28T23:46:19.057Z,7.00
2019-04-28T23:48:49.364Z,5.35
2019-04-28T23:51:39.132Z,6.45
2019-04-28T23:54:09.675Z,5.20
2019-04-28T23:56:40.063Z,4.60
2019-04-28T23:59:10.672Z,4.78
